Time;durP1;ratioP1;P1;durP2;ratioP2;P2;SDS_P1;SDS_P2;PMS_P1;PMS_P2;Temp;Humidity;BMP_temperature;BMP_pressure;BME280_temperature;BME280_humidity;BME280_pressure;Samples;Min_cycle;Max_cycle;Signal;HPM_P1;HPM_P2
2023/10/16 00:02:12;;;;;;;9.57;1.60;;;;;;;9.27;66.25;98574.13;5112743;28;20582;-64
2023/10/16 00:04:45;;;;;;;4.68;1.80;;;;;;;9.29;66.00;98589.03;5114309;28;20038;-64
2023/10/16 00:07:12;;;;;;;4.70;1.83;;;;;;;9.27;66.15;98599.03;5116721;27;20031;-63
2023/10/16 00:09:39;;;;;;;5.25;1.77;;;;;;;9.31;66.28;98588.91;5117978;27;20032;-65
2023/10/16 00:12:05;;;;;;;5.75;1.52;;;;;;;9.31;65.78;98579.03;5117787;27;20043;-63
2023/10/16 00:14:31;;;;;;;8.70;1.73;;;;;;;9.29;66.37;98586.34;5116522;28;20024;-64
2023/10/16 00:16:57;;;;;;;6.18;1.80;;;;;;;9.26;65.93;98581.31;5117126;28;20059;-64
2023/10/16 00:19:24;;;;;;;7.35;1.75;;;;;;;9.31;65.43;98579.03;5117306;28;20031;-63
2023/10/16 00:21:52;;;;;;;5.57;1.95;;;;;;;9.32;65.67;98575.38;5116814;28;20229;-60
2023/10/16 00:24:18;;;;;;;5.57;1.73;;;;;;;9.14;65.68;98529.06;5118019;27;20036;-64
2023/10/16 00:26:50;;;;;;;6.38;1.90;;;;;;;9.39;65.92;98575.63;5116964;28;20472;-64
2023/10/16 00:29:19;;;;;;;6.50;1.70;;;;;;;9.41;65.79;98578.19;5117371;27;20342;-64
2023/10/16 00:31:51;;;;;;;9.07;2.08;;;;;;;9.39;65.42;98564.09;5117611;27;20062;-63
2023/10/16 00:34:19;;;;;;;9.77;2.00;;;;;;;9.49;66.07;98570.25;5117095;28;20031;-64
2023/10/16 00:36:46;;;;;;;3.33;1.42;;;;;;;9.48;64.85;98587.28;5116674;28;20039;-62
2023/10/16 00:39:15;;;;;;;5.80;1.65;;;;;;;9.49;64.58;98575.59;5116048;28;20050;-64
2023/10/16 00:41:42;;;;;;;10.13;1.50;;;;;;;9.34;64.38;98544.03;5116556;28;20131;-65
2023/10/16 00:44:08;;;;;;;6.55;1.90;;;;;;;9.52;64.37;98574.44;5115850;27;20047;-64
2023/10/16 00:46:37;;;;;;;8.00;1.60;;;;;;;9.54;64.41;98572.50;5116739;28;20093;-64
2023/10/16 00:49:07;;;;;;;6.05;1.73;;;;;;;9.59;64.96;98580.91;5116497;28;20023;-64
2023/10/16 00:51:36;;;;;;;5.95;1.65;;;;;;;9.52;65.03;98588.66;5117356;27;20024;-64
2023/10/16 00:54:03;;;;;;;5.85;2.17;;;;;;;9.52;65.34;98587.81;5116321;28;20477;-64
2023/10/16 00:56:30;;;;;;;6.75;1.67;;;;;;;9.50;65.02;98587.13;5116383;28;20059;-65
2023/10/16 00:58:56;;;;;;;4.43;1.42;;;;;;;9.49;64.85;98591.63;5116138;27;20031;-64
2023/10/16 01:01:24;;;;;;;5.65;1.38;;;;;;;9.54;64.40;98592.03;5116461;28;20027;-63
2023/10/16 01:03:50;;;;;;;4.05;1.58;;;;;;;9.50;64.25;98581.78;5116228;28;20024;-63
2023/10/16 01:06:16;;;;;;;4.03;1.50;;;;;;;9.51;64.04;98586.97;5118734;27;20027;-65
2023/10/16 01:08:45;;;;;;;5.03;1.85;;;;;;;9.58;64.02;98596.06;5116012;28;20058;-65
2023/10/16 01:11:14;;;;;;;4.80;1.45;;;;;;;9.52;64.01;98591.34;5116959;27;20066;-66
2023/10/16 01:13:40;;;;;;;5.60;1.65;;;;;;;9.55;63.96;98591.03;5116055;28;20092;-64
2023/10/16 01:16:07;;;;;;;4.18;1.42;;;;;;;9.58;63.77;98601.41;5114809;28;20035;-66
2023/10/16 01:18:34;;;;;;;5.80;1.67;;;;;;;9.60;63.99;98609.31;5114845;28;20100;-65
2023/10/16 01:21:04;;;;;;;9.30;2.17;;;;;;;9.57;63.88;98601.59;5116184;28;20089;-65
2023/10/16 01:23:34;;;;;;;6.53;1.80;;;;;;;9.59;63.94;98608.44;5115818;28;20079;-64
2023/10/16 01:26:04;;;;;;;9.05;1.85;;;;;;;9.63;63.96;98604.47;5116765;27;20031;-65
2023/10/16 01:28:30;;;;;;;7.97;1.98;;;;;;;9.60;63.93;98598.63;5116020;28;20119;-64
2023/10/16 01:30:55;;;;;;;8.93;1.80;;;;;;;9.58;63.67;98593.41;5115523;28;20056;-63
2023/10/16 01:33:23;;;;;;;9.23;1.80;;;;;;;9.58;63.31;98593.41;5116728;27;20032;-64
2023/10/16 01:35:52;;;;;;;5.35;1.98;;;;;;;9.58;63.55;98592.59;5115558;28;20114;-64
2023/10/16 01:38:19;;;;;;;6.28;1.95;;;;;;;9.57;63.41;98594.41;5115512;28;20038;-64
2023/10/16 01:41:13;;;;;;;6.15;2.13;;;;;;;9.54;63.42;98589.34;5115254;28;20472;-65
2023/10/16 01:43:37;;;;;;;6.82;1.95;;;;;;;9.58;63.67;98579.22;5115127;28;20043;-64
2023/10/16 01:46:12;;;;;;;8.63;1.80;;;;;;;9.40;64.12;98549.75;5115540;28;20043;-61
2023/10/16 01:48:41;;;;;;;13.10;1.92;;;;;;;9.55;64.24;98585.69;5116082;27;20350;-64
2023/10/16 01:51:19;;;;;;;6.00;1.73;;;;;;;9.50;63.72;98582.63;5115146;28;20054;-64
2023/10/16 01:53:47;;;;;;;5.50;1.80;;;;;;;9.52;64.21;98583.31;5115260;28;20027;-62
2023/10/16 01:56:14;;;;;;;6.80;2.42;;;;;;;9.50;64.63;98587.97;5115097;28;20023;-64
2023/10/16 01:58:46;;;;;;;9.15;2.10;;;;;;;9.55;64.29;98579.53;5114974;28;20112;-65
2023/10/16 02:01:13;;;;;;;8.48;2.20;;;;;;;9.47;63.67;98575.72;5123592;27;20129;-65
2023/10/16 02:03:45;;;;;;;8.43;2.08;;;;;;;9.49;63.77;98588.97;5124199;27;20043;-66
2023/10/16 02:06:11;;;;;;;7.88;1.67;;;;;;;9.50;63.87;98581.78;5128017;27;20113;-64
2023/10/16 02:08:38;;;;;;;4.15;1.77;;;;;;;9.50;63.57;98577.28;5135091;27;20039;-64
2023/10/16 02:11:04;;;;;;;9.88;2.17;;;;;;;9.49;63.52;98586.28;5135173;27;20019;-65
2023/10/16 02:13:35;;;;;;;14.35;2.55;;;;;;;9.42;63.34;98569.16;5134997;27;20023;-65
2023/10/16 02:16:02;;;;;;;9.85;2.33;;;;;;;9.47;63.34;98581.06;5135815;27;20057;-64
2023/10/16 02:18:36;;;;;;;6.57;2.20;;;;;;;9.46;63.47;98570.56;5135054;27;20027;-63
2023/10/16 02:21:22;;;;;;;5.53;1.80;;;;;;;9.45;63.53;98564.34;5132656;27;20088;-64
2023/10/16 02:23:47;;;;;;;6.57;2.15;;;;;;;9.48;63.24;98573.91;5133251;27;20042;-64
2023/10/16 02:26:18;;;;;;;5.90;1.95;;;;;;;9.46;63.30;98570.56;5134740;27;20023;-64
2023/10/16 02:28:53;;;;;;;9.23;1.88;;;;;;;9.45;63.25;98572.38;5134737;27;20054;-64
2023/10/16 02:31:19;;;;;;;5.20;1.40;;;;;;;9.47;63.28;98577.59;5135244;27;20056;-64
2023/10/16 02:33:50;;;;;;;11.38;2.30;;;;;;;9.20;62.97;98539.19;5133266;27;20365;-63
2023/10/16 02:36:19;;;;;;;8.70;1.85;;;;;;;9.42;63.26;98574.53;5134808;27;20027;-64
2023/10/16 02:38:48;;;;;;;6.18;1.88;;;;;;;9.46;63.20;98581.25;5134492;27;20034;-64
2023/10/16 02:41:19;;;;;;;4.53;1.70;;;;;;;9.42;63.34;98571.84;5134838;27;20042;-65
2023/10/16 02:43:46;;;;;;;4.78;1.95;;;;;;;9.36;63.38;98564.41;5133087;27;20093;-64
2023/10/16 02:46:21;;;;;;;4.38;1.70;;;;;;;9.45;63.40;98576.88;5134622;27;20357;-65
2023/10/16 02:48:47;;;;;;;6.87;1.97;;;;;;;9.42;63.01;98571.84;5134679;27;20027;-65
2023/10/16 02:51:16;;;;;;;7.03;1.67;;;;;;;9.37;63.46;98566.94;5134519;27;20034;-64
2023/10/16 02:53:43;;;;;;;7.30;2.00;;;;;;;9.42;63.41;98578.00;5134302;27;20394;-64
2023/10/16 02:58:43;;;;;;;8.73;2.17;;;;;;;9.43;62.95;98578.88;5133931;27;20033;-64
2023/10/16 03:01:19;;;;;;;8.45;1.90;;;;;;;9.40;63.41;98573.78;5134280;27;20472;-65
2023/10/16 03:03:46;;;;;;;6.63;2.05;;;;;;;9.40;63.21;98579.13;5132160;27;20369;-63
2023/10/16 03:06:13;;;;;;;8.75;2.10;;;;;;;9.28;63.13;98568.66;5134180;27;20106;-64
2023/10/16 03:08:39;;;;;;;6.97;2.17;;;;;;;9.37;63.60;98592.78;5134545;27;20111;-64
2023/10/16 03:11:13;;;;;;;7.43;1.85;;;;;;;9.36;63.71;98585.75;5134077;27;20115;-64
2023/10/16 03:13:43;;;;;;;7.65;2.20;;;;;;;9.37;63.32;98598.13;5134182;27;20027;-64
2023/10/16 03:16:29;;;;;;;6.68;2.25;;;;;;;9.38;63.42;98605.16;5134441;27;20389;-64
2023/10/16 03:19:09;;;;;;;4.25;1.75;;;;;;;9.32;63.61;98604.75;5132112;27;20023;-64
2023/10/16 03:21:35;;;;;;;6.93;2.00;;;;;;;9.35;63.48;98590.28;5133892;27;20545;-63
2023/10/16 03:24:00;;;;;;;8.18;2.08;;;;;;;9.33;63.64;98593.09;5122135;27;20032;-60
2023/10/16 03:26:31;;;;;;;8.65;2.35;;;;;;;9.19;63.55;98562.34;5113460;28;20036;-65
2023/10/16 03:29:05;;;;;;;6.03;1.70;;;;;;;9.37;63.36;98576.75;5113652;28;20032;-65
2023/10/16 03:31:36;;;;;;;9.05;2.15;;;;;;;9.36;63.40;98586.63;5113704;28;20024;-63
2023/10/16 03:34:02;;;;;;;3.47;1.65;;;;;;;9.37;63.83;98590.13;5113564;28;20027;-64
2023/10/16 03:36:28;;;;;;;4.85;1.92;;;;;;;9.36;63.65;98567.94;5113206;28;20065;-64
2023/10/16 03:38:57;;;;;;;5.70;2.08;;;;;;;9.36;63.81;98561.72;5112403;27;20035;-64
2023/10/16 03:41:32;;;;;;;9.75;2.60;;;;;;;9.37;63.21;98552.72;5113214;28;20039;-64
2023/10/16 03:44:14;;;;;;;8.13;2.15;;;;;;;9.40;63.10;98549.75;5114399;28;20039;-64
2023/10/16 03:46:42;;;;;;;5.70;2.20;;;;;;;9.48;62.98;98550.69;5127217;27;20036;-65
2023/10/16 03:49:08;;;;;;;7.75;1.90;;;;;;;9.42;62.67;98555.81;5133916;27;20464;-63
2023/10/16 03:51:34;;;;;;;6.22;2.00;;;;;;;9.41;62.85;98560.31;5133682;27;20027;-64
2023/10/16 03:54:02;;;;;;;9.38;2.03;;;;;;;9.43;63.61;98569.00;5133784;27;20347;-65
2023/10/16 03:56:30;;;;;;;7.10;2.00;;;;;;;9.43;63.60;98562.84;5133665;27;20075;-65
2023/10/16 03:58:57;;;;;;;7.68;2.08;;;;;;;9.39;63.69;98556.94;5133811;27;20058;-64
2023/10/16 04:01:27;;;;;;;6.57;2.15;;;;;;;9.34;63.65;98564.56;5131711;27;20031;-63
2023/10/16 04:04:02;;;;;;;7.22;2.03;;;;;;;9.39;63.42;98558.75;5121193;27;20040;-65
2023/10/16 04:06:28;;;;;;;9.48;2.65;;;;;;;9.29;63.30;98543.63;5113127;28;20063;-65
2023/10/16 04:08:55;;;;;;;9.25;2.53;;;;;;;9.32;63.56;98546.00;5114180;28;20059;-64
2023/10/16 04:11:25;;;;;;;6.72;2.35;;;;;;;9.31;63.63;98548.84;5112914;28;20122;-64
2023/10/16 04:13:54;;;;;;;7.47;2.15;;;;;;;9.26;63.62;98549.25;5112561;28;20074;-64
2023/10/16 04:21:44;;;;;;;9.98;2.50;;;;;;;9.22;63.67;98563.06;5111729;28;20043;-64
2023/10/16 04:32:37;;;;;;;8.32;1.95;;;;;;;9.25;63.13;98552.94;5099254;27;20047;-64
2023/10/16 04:35:42;;;;;;;8.68;2.13;;;;;;;9.24;63.39;98561.94;5133468;27;20412;-64
2023/10/16 04:37:54;;;;;;;5.85;2.30;;;;;;;8.98;63.65;98527.88;5133122;28;20464;-65
2023/10/16 04:43:09;;;;;;;9.07;2.03;;;;;;;9.24;63.12;98561.94;5133040;27;20040;-60
2023/10/16 04:45:59;;;;;;;5.82;2.25;;;;;;;8.90;63.80;98503.72;5132616;27;20123;-63
2023/10/16 04:48:23;;;;;;;5.82;2.33;;;;;;;9.24;63.26;98550.38;5129069;28;20035;-64
2023/10/16 04:51:09;;;;;;;5.93;2.47;;;;;;;9.24;63.75;98559.25;5127565;27;20031;-65
2023/10/16 04:53:48;;;;;;;6.13;1.88;;;;;;;9.27;63.52;98545.59;5116314;28;20024;-64
2023/10/16 04:56:30;;;;;;;6.32;2.00;;;;;;;9.25;63.19;98544.91;5115167;28;20035;-63
2023/10/16 04:59:01;;;;;;;5.30;2.25;;;;;;;9.19;62.99;98542.84;5116300;28;20051;-64
2023/10/16 05:02:06;;;;;;;5.82;2.00;;;;;;;9.25;63.06;98544.91;5115990;28;20035;-65
2023/10/16 05:07:37;;;;;;;7.10;2.25;;;;;;;9.36;63.76;98527.84;5073333;28;20036;-65
2023/10/16 05:10:17;;;;;;;9.98;2.58;;;;;;;9.37;63.55;98516.19;5112241;28;20343;-64
2023/10/16 05:18:46;;;;;;;6.72;2.45;;;;;;;9.41;63.66;98552.28;5136446;27;20415;-65
2023/10/16 06:16:17;;;;;;;7.10;2.63;;;;;;;9.98;61.11;98540.53;5115144;28;20010;-60
2023/10/16 06:18:47;;;;;;;11.23;2.65;;;;;;;9.79;61.29;98509.47;5114840;27;20108;-63
2023/10/16 06:21:17;;;;;;;7.78;2.88;;;;;;;10.01;61.18;98555.47;5113981;28;20213;-62
2023/10/16 06:23:48;;;;;;;9.90;2.70;;;;;;;10.04;60.50;98553.34;5114721;28;20043;-65
2023/10/16 06:26:17;;;;;;;6.63;2.70;;;;;;;10.05;60.79;98552.34;5114915;28;20039;-64
2023/10/16 06:28:49;;;;;;;8.40;3.70;;;;;;;9.93;61.10;98550.88;5114156;28;20059;-64
2023/10/16 06:31:24;;;;;;;10.65;3.72;;;;;;;9.93;61.02;98545.50;5114317;28;20027;-64
2023/10/16 06:33:56;;;;;;;7.93;2.95;;;;;;;9.84;61.07;98541.91;5118073;27;20026;-64
2023/10/16 06:36:24;;;;;;;11.00;3.63;;;;;;;9.79;61.48;98541.53;5104198;27;20027;-64
2023/10/16 06:38:51;;;;;;;11.48;3.45;;;;;;;9.74;61.60;98541.97;5114032;28;20571;-64
2023/10/16 06:41:20;;;;;;;11.35;3.15;;;;;;;9.72;61.76;98519.91;5096265;28;20035;-63
2023/10/16 06:43:50;;;;;;;11.02;3.53;;;;;;;9.81;61.62;98531.53;5112827;28;20442;-63
2023/10/16 06:46:25;;;;;;;6.72;2.88;;;;;;;9.55;61.05;98484.16;5114064;28;20028;-64
2023/10/16 06:48:51;;;;;;;;;;;;;;;10.22;61.51;98532.94;5113313;28;20023;-62
2023/10/16 06:51:17;;;;;;;;;;;;;;;10.38;60.98;98532.22;5114885;27;19908;-63
2023/10/16 06:53:45;;;;;;;8.65;2.95;;;;;;;10.17;60.69;98531.56;5114091;28;19984;-65
2023/10/16 06:56:14;;;;;;;7.63;2.70;;;;;;;10.05;61.03;98528.28;5113213;28;20088;-63
2023/10/16 06:58:41;;;;;;;10.45;2.90;;;;;;;10.00;61.07;98508.31;5112518;28;20055;-63
2023/10/16 07:01:06;;;;;;;9.60;3.20;;;;;;;10.02;61.57;98517.03;5113533;27;20079;-64
2023/10/16 07:03:38;;;;;;;9.57;3.03;;;;;;;10.08;61.25;98521.75;5132553;27;20035;-63
2023/10/16 07:06:05;;;;;;;9.82;3.17;;;;;;;10.09;60.79;98512.75;5115408;27;20036;-63
2023/10/16 07:08:33;;;;;;;14.07;2.95;;;;;;;10.09;61.32;98510.06;5114488;27;20031;-62
2023/10/16 07:11:03;;;;;;;11.98;2.40;;;;;;;10.05;61.07;98511.38;5113274;28;20063;-64
2023/10/16 07:13:31;;;;;;;8.63;2.42;;;;;;;10.07;61.72;98509.38;5113666;27;20051;-61
2023/10/16 07:16:01;;;;;;;9.20;2.67;;;;;;;10.07;62.08;98513.91;5112810;28;20027;-63
2023/10/16 07:18:42;;;;;;;10.02;2.83;;;;;;;9.89;61.96;98483.50;5113354;28;20422;-63
2023/10/16 07:21:08;;;;;;;7.60;2.75;;;;;;;9.93;61.28;98494.72;5112442;28;20035;-61
2023/10/16 07:23:38;;;;;;;9.32;2.95;;;;;;;9.98;62.00;98512.97;5114746;27;20423;-62
2023/10/16 07:26:06;;;;;;;10.50;3.17;;;;;;;9.57;62.01;98443.94;5113017;28;20054;-62
2023/10/16 07:28:32;;;;;;;8.65;3.20;;;;;;;9.94;62.69;98501.75;5112258;28;20416;-63
2023/10/16 07:31:05;;;;;;;10.48;2.85;;;;;;;9.93;62.60;98507.25;5112566;28;20495;-62
2023/10/16 07:33:31;;;;;;;8.65;2.70;;;;;;;9.94;62.94;98498.25;5113469;27;20024;-64
2023/10/16 07:36:01;;;;;;;7.90;3.10;;;;;;;9.98;63.34;98504.97;5113088;28;20059;-63
2023/10/16 07:38:28;;;;;;;8.30;2.80;;;;;;;10.00;62.90;98505.66;5113427;28;20042;-62
2023/10/16 07:40:53;;;;;;;5.40;2.40;;;;;;;9.98;62.44;98499.63;5112388;28;20028;-62
2023/10/16 07:43:32;;;;;;;7.85;2.80;;;;;;;9.94;62.82;98498.25;5113073;28;20134;-62
2023/10/16 07:48:45;;;;;;;9.18;2.90;;;;;;;9.98;63.13;98494.28;5091796;28;20032;-62
2023/10/16 07:51:19;;;;;;;11.07;3.13;;;;;;;10.01;63.07;98510.00;5093240;28;20040;-62
2023/10/16 07:53:48;;;;;;;9.30;3.20;;;;;;;9.96;62.94;98501.59;5091829;28;20074;-64
2023/10/16 07:58:56;;;;;;;;;;;;;;;10.28;62.78;98486.81;5116414;27;20082;-62
2023/10/16 08:04:19;;;;;;;;;;;;;;;10.37;62.58;98483.25;5112830;28;20434;-61
2023/10/16 08:06:45;;;;;;;12.63;3.33;;;;;;;10.08;62.98;98481.66;5112868;28;19911;-63
2023/10/16 08:11:59;;;;;;;6.25;3.13;;;;;;;9.72;63.53;98444.25;5112355;28;20030;-62
2023/10/16 08:14:26;;;;;;;10.48;3.20;;;;;;;9.81;64.09;98472.72;5112387;28;20051;-62
2023/10/16 08:16:58;;;;;;;8.57;3.90;;;;;;;9.83;64.77;98477.94;5112481;28;20059;-62
2023/10/16 08:19:25;;;;;;;10.00;3.70;;;;;;;9.90;64.74;98474.50;5111892;28;20027;-64
2023/10/16 08:21:56;;;;;;;11.32;3.45;;;;;;;9.94;64.46;98467.00;5115640;28;20126;-61
2023/10/16 08:24:24;;;;;;;11.57;4.85;;;;;;;10.03;63.54;98476.78;5133046;27;20039;-63
2023/10/16 08:26:54;;;;;;;15.20;4.63;;;;;;;10.03;63.90;98465.22;5119439;27;20178;-63
2023/10/16 08:29:20;;;;;;;12.65;4.35;;;;;;;9.98;64.02;98456.84;5116820;28;20027;-60
2023/10/16 08:34:35;;;;;;;10.13;3.75;;;;;;;9.91;63.34;98452.13;5116386;27;20028;-62
2023/10/16 08:37:04;;;;;;;7.95;3.58;;;;;;;9.89;64.11;98459.44;5121767;27;20027;-62
2023/10/16 08:39:36;;;;;;;14.15;5.18;;;;;;;9.89;64.09;98458.59;5118935;27;20078;-63
2023/10/16 08:42:18;;;;;;;13.93;4.30;;;;;;;9.94;63.89;98450.13;5115783;28;20479;-61
2023/10/16 08:44:51;;;;;;;10.05;4.57;;;;;;;9.77;64.50;98424.09;5116225;28;20038;-63
2023/10/16 08:47:25;;;;;;;11.55;4.20;;;;;;;9.95;64.08;98451.81;5116371;28;20069;-62
2023/10/16 08:49:54;;;;;;;8.18;4.07;;;;;;;9.96;63.90;98453.47;5095551;28;20043;-63
2023/10/16 08:52:23;;;;;;;12.63;4.65;;;;;;;9.88;64.40;98455.06;5094660;28;20028;-64
2023/10/16 08:57:19;;;;;;;10.38;4.30;;;;;;;9.90;64.85;98469.16;5114125;28;20092;-62
2023/10/16 08:59:49;;;;;;;11.90;4.75;;;;;;;9.97;64.80;98460.50;5116139;28;20023;-63
2023/10/16 09:02:17;;;;;;;11.68;4.88;;;;;;;9.90;64.77;98454.94;5107084;28;20093;-62
2023/10/16 09:04:44;;;;;;;14.10;4.65;;;;;;;9.93;64.97;98461.81;5125922;27;20038;-61
2023/10/16 09:07:19;;;;;;;11.73;4.47;;;;;;;9.89;64.69;98440.72;5133783;27;20034;-64
2023/10/16 09:09:49;;;;;;;11.93;4.53;;;;;;;9.99;65.14;98453.16;5109119;28;20074;-63
2023/10/16 09:12:26;;;;;;;8.43;3.83;;;;;;;10.00;64.18;98444.16;5110598;28;20111;-63
2023/10/16 09:14:53;;;;;;;11.85;3.92;;;;;;;9.99;64.26;98454.00;5098885;28;20096;-63
2023/10/16 09:17:23;;;;;;;10.77;3.78;;;;;;;9.94;64.46;98436.75;5095169;28;20032;-61
2023/10/16 09:19:50;;;;;;;9.13;3.50;;;;;;;9.97;63.98;98444.47;5093559;28;20032;-63
2023/10/16 09:22:17;;;;;;;10.32;3.28;;;;;;;9.91;63.88;98444.09;5094959;28;20051;-63
2023/10/16 09:24:46;;;;;;;7.88;3.15;;;;;;;9.87;63.82;98449.88;5095145;28;20088;-64
2023/10/16 09:27:30;;;;;;;7.40;3.45;;;;;;;9.89;64.35;98443.41;5111164;28;20023;-61
2023/10/16 09:30:01;;;;;;;10.27;3.58;;;;;;;9.94;63.79;98434.09;5132670;27;20023;-63
2023/10/16 09:32:34;;;;;;;9.45;4.13;;;;;;;9.98;63.86;98436.28;5135634;27;20037;-58
2023/10/16 09:35:05;;;;;;;9.60;3.53;;;;;;;9.91;64.14;98420.03;5136006;27;20023;-65
2023/10/16 09:37:37;;;;;;;16.20;3.80;;;;;;;10.03;64.33;98435.81;5134632;27;20027;-63
2023/10/16 09:40:20;;;;;;;10.38;3.47;;;;;;;10.07;64.43;98442.53;5104779;27;20411;-63
2023/10/16 09:42:56;;;;;;;7.53;3.60;;;;;;;9.98;64.40;98424.75;5099323;27;20120;-62
2023/10/16 09:45:23;;;;;;;8.93;3.72;;;;;;;9.77;64.62;98401.84;5107954;28;20039;-62
2023/10/16 09:47:51;;;;;;;9.60;3.35;;;;;;;9.99;64.60;98431.78;5094721;28;20439;-60
2023/10/16 09:50:20;;;;;;;8.30;3.35;;;;;;;9.99;63.92;98432.59;5093515;28;20032;-61
2023/10/16 09:52:47;;;;;;;10.68;3.53;;;;;;;10.00;64.09;98439.63;5109193;27;20472;-61
2023/10/16 09:55:13;;;;;;;6.90;3.50;;;;;;;10.01;63.94;98441.34;5097400;28;20113;-62
2023/10/16 09:57:49;;;;;;;8.60;3.90;;;;;;;10.07;64.05;98445.22;5111542;28;20044;-60
2023/10/16 10:03:05;;;;;;;11.18;3.60;;;;;;;10.03;64.23;98433.16;5119545;27;20119;-61
2023/10/16 10:05:48;;;;;;;8.70;4.25;;;;;;;10.00;64.72;98441.47;5096589;28;20039;-63
2023/10/16 10:08:27;;;;;;;9.38;3.85;;;;;;;9.99;64.54;98437.94;5105401;28;20034;-66
2023/10/16 10:11:37;;;;;;;7.07;3.97;;;;;;;9.96;64.70;98435.59;5114178;28;20050;-63
2023/10/16 10:16:56;;;;;;;8.15;3.67;;;;;;;9.99;64.24;98437.13;5124866;27;20027;-62
2023/10/16 10:19:36;;;;;;;7.90;3.70;;;;;;;9.98;64.44;98438.13;5134978;27;20122;-65
2023/10/16 10:22:06;;;;;;;8.98;3.83;;;;;;;9.97;64.49;98431.09;5117014;27;20040;-64
2023/10/16 10:24:35;;;;;;;7.20;3.45;;;;;;;9.95;64.15;98425.88;5104637;27;20070;-64
2023/10/16 10:27:05;;;;;;;9.30;3.97;;;;;;;9.98;65.09;98419.41;5117662;27;20039;-65
2023/10/16 10:29:31;;;;;;;5.30;3.22;;;;;;;9.98;64.92;98416.72;5106657;28;20111;-64
2023/10/16 10:32:10;;;;;;;8.50;3.70;;;;;;;10.12;65.38;98412.66;5093918;28;20124;-65
2023/10/16 10:34:35;;;;;;;8.00;3.50;;;;;;;10.08;64.00;98409.44;5093641;28;20036;-65
2023/10/16 10:37:07;;;;;;;7.90;3.63;;;;;;;10.08;64.27;98408.63;5112828;27;20398;-65
2023/10/16 10:39:43;;;;;;;9.70;3.75;;;;;;;10.14;64.58;98411.50;5113754;28;20510;-66
2023/10/16 10:42:16;;;;;;;7.03;3.25;;;;;;;10.09;63.67;98416.47;5113400;28;20031;-67
2023/10/16 10:45:17;;;;;;;7.68;2.72;;;;;;;10.20;63.84;98405.53;5113698;27;20023;-65
2023/10/16 10:47:44;;;;;;;9.00;3.03;;;;;;;10.10;63.65;98406.63;5113108;28;20035;-60
2023/10/16 10:50:15;;;;;;;13.63;3.50;;;;;;;10.07;63.34;98401.59;5113833;28;20358;-63
2023/10/16 10:52:43;;;;;;;8.27;3.35;;;;;;;10.09;64.83;98395.06;5115832;27;20015;-64
2023/10/16 10:55:19;;;;;;;6.93;3.20;;;;;;;10.07;63.70;98391.72;5134152;27;20031;-66
2023/10/16 10:57:49;;;;;;;7.40;3.05;;;;;;;10.02;64.08;98380.66;5120236;27;20453;-65
2023/10/16 11:03:09;;;;;;;12.63;3.67;;;;;;;10.08;64.02;98390.72;5113223;28;20024;-63
2023/10/16 11:05:40;;;;;;;3.55;2.53;;;;;;;9.97;63.09;98353.56;5113717;28;20027;-63
2023/10/16 11:10:46;;;;;;;7.90;2.65;;;;;;;10.23;62.73;98384.81;5113296;28;20354;-63
2023/10/16 11:13:17;;;;;;;6.82;2.65;;;;;;;10.16;62.62;98361.38;5113164;28;20450;-62
2023/10/16 11:15:54;;;;;;;3.63;2.22;;;;;;;10.25;62.13;98374.78;5113672;27;20043;-62
2023/10/16 11:18:22;;;;;;;8.90;2.50;;;;;;;10.18;61.80;98370.09;5100694;27;20093;-64
2023/10/16 11:20:49;;;;;;;6.13;2.60;;;;;;;10.14;62.45;98365.19;5092509;28;20028;-62
2023/10/16 11:23:21;;;;;;;3.88;2.17;;;;;;;10.05;62.11;98367.84;5093197;28;20123;-63
2023/10/16 11:25:52;;;;;;;10.00;2.90;;;;;;;9.96;62.46;98366.06;5094973;28;20047;-62
2023/10/16 11:28:28;;;;;;;5.63;2.78;;;;;;;9.98;63.41;98373.94;5112487;28;20431;-61
2023/10/16 11:30:56;;;;;;;6.25;2.80;;;;;;;9.97;63.25;98365.06;5130169;27;20043;-63
2023/10/16 11:33:35;;;;;;;5.57;2.75;;;;;;;9.99;63.47;98357.72;5133940;27;20066;-64
2023/10/16 11:36:06;;;;;;;7.72;2.85;;;;;;;9.88;63.67;98358.81;5133592;27;20034;-63
2023/10/16 11:38:34;;;;;;;3.67;2.17;;;;;;;9.84;63.81;98362.00;5125311;27;20192;-64
2023/10/16 11:41:05;;;;;;;6.32;2.95;;;;;;;9.77;64.27;98356.41;5113717;27;20038;-64
2023/10/16 11:43:37;;;;;;;6.38;3.30;;;;;;;9.72;64.60;98356.06;5110320;28;20041;-63
2023/10/16 11:46:12;;;;;;;5.78;2.97;;;;;;;9.72;64.89;98350.69;5104248;28;20119;-62
2023/10/16 11:48:42;;;;;;;7.47;2.90;;;;;;;9.74;64.88;98352.22;5106562;28;20467;-64
2023/10/16 11:51:18;;;;;;;6.25;2.75;;;;;;;9.78;64.45;98339.38;5096683;28;20035;-64
2023/10/16 11:53:44;;;;;;;9.73;3.30;;;;;;;9.75;64.58;98335.19;5096796;28;20031;-67
2023/10/16 11:56:13;;;;;;;8.93;3.10;;;;;;;9.73;64.72;98331.00;5099235;28;20031;-67
2023/10/16 11:58:40;;;;;;;8.60;3.22;;;;;;;9.20;64.70;98242.75;5111870;28;20032;-63
2023/10/16 12:01:09;;;;;;;8.20;3.42;;;;;;;9.73;64.56;98333.66;5112551;28;20114;-67
2023/10/16 12:03:39;;;;;;;10.00;3.40;;;;;;;9.67;64.57;98310.25;5112545;28;20419;-63
2023/10/16 12:06:09;;;;;;;7.00;3.60;;;;;;;9.74;64.78;98328.16;5112286;28;20031;-63
2023/10/16 12:08:37;;;;;;;10.88;3.67;;;;;;;9.76;64.70;98331.50;5111945;28;20032;-64
2023/10/16 12:11:04;;;;;;;6.88;2.95;;;;;;;9.68;64.44;98328.78;5113768;28;20050;-64
2023/10/16 12:13:30;;;;;;;7.07;3.45;;;;;;;9.72;65.10;98332.00;5111209;28;20107;-64
2023/10/16 12:15:57;;;;;;;6.13;3.55;;;;;;;9.67;65.42;98326.28;5112369;28;20046;-64
2023/10/16 12:18:26;;;;;;;7.03;3.38;;;;;;;9.69;64.65;98329.63;5094667;28;20024;-64
2023/10/16 12:20:53;;;;;;;9.82;3.92;;;;;;;9.67;64.91;98312.94;5110408;28;20023;-63
2023/10/16 12:23:22;;;;;;;9.15;3.55;;;;;;;9.44;64.90;98284.03;5111821;28;20362;-64
2023/10/16 12:25:47;;;;;;;8.23;3.70;;;;;;;9.63;64.66;98310.53;5111714;28;20055;-64
2023/10/16 12:28:13;;;;;;;7.13;3.45;;;;;;;9.59;65.45;98311.84;5111881;28;20438;-63
2023/10/16 12:30:38;;;;;;;9.05;4.00;;;;;;;9.56;66.13;98306.81;5111089;28;20854;-67
2023/10/16 12:33:07;;;;;;;10.35;3.88;;;;;;;9.54;65.55;98302.63;5094847;28;20034;-64
2023/10/16 12:35:34;;;;;;;8.45;3.58;;;;;;;9.61;66.21;98323.22;5102748;28;20039;-64
2023/10/16 12:38:07;;;;;;;8.85;3.90;;;;;;;9.63;67.04;98320.41;5131686;28;20034;-63
2023/10/16 12:40:37;;;;;;;7.82;3.50;;;;;;;9.55;66.49;98315.81;5111972;28;20434;-63
2023/10/16 12:43:05;;;;;;;6.63;3.22;;;;;;;9.55;66.60;98334.53;5100605;28;20039;-63
2023/10/16 12:45:32;;;;;;;8.77;3.90;;;;;;;9.30;67.32;98298.78;5112995;28;20024;-64
2023/10/16 12:47:57;;;;;;;9.52;3.90;;;;;;;9.36;66.92;98318.66;5110884;28;20100;-64
2023/10/16 12:50:27;;;;;;;9.00;3.53;;;;;;;9.42;67.01;98324.22;5102474;28;20385;-65
2023/10/16 12:53:00;;;;;;;7.28;3.42;;;;;;;9.49;67.48;98335.16;5091849;28;20074;-64
2023/10/16 12:55:26;;;;;;;8.32;3.70;;;;;;;9.38;67.70;98322.88;5097187;28;20040;-66
2023/10/16 12:57:53;;;;;;;7.25;3.50;;;;;;;9.41;67.32;98316.38;5110748;28;20023;-65
2023/10/16 13:00:21;;;;;;;8.00;3.25;;;;;;;9.40;67.41;98330.72;5112857;28;20023;-65
2023/10/16 13:02:51;;;;;;;9.90;3.47;;;;;;;9.38;67.75;98319.34;5111212;28;20024;-65
2023/10/16 13:05:18;;;;;;;11.73;3.58;;;;;;;9.24;67.40;98313.56;5111345;28;20042;-65
2023/10/16 13:07:47;;;;;;;9.63;3.10;;;;;;;9.27;67.46;98325.75;5112268;28;20510;-65
2023/10/16 13:10:19;;;;;;;10.75;3.30;;;;;;;9.31;68.07;98327.16;5114279;27;20228;-67
2023/10/16 13:12:46;;;;;;;8.07;3.33;;;;;;;9.02;67.33;98285.47;5130696;27;20034;-67
2023/10/16 13:15:16;;;;;;;5.82;3.15;;;;;;;9.18;67.96;98320.34;5113230;28;20118;-66
2023/10/16 13:17:44;;;;;;;5.70;2.67;;;;;;;9.15;68.25;98325.13;5114695;28;20786;-66
2023/10/16 13:20:19;;;;;;;8.00;2.90;;;;;;;9.12;68.24;98314.75;5117869;27;20047;-67
2023/10/16 13:22:49;;;;;;;5.80;2.97;;;;;;;9.13;68.06;98319.13;5115650;27;20208;-67
2023/10/16 13:25:18;;;;;;;5.45;2.38;;;;;;;9.10;68.05;98330.97;5132925;27;20122;-65
2023/10/16 13:27:45;;;;;;;4.07;2.55;;;;;;;9.05;68.61;98323.38;5131788;27;20364;-64
2023/10/16 13:30:16;;;;;;;12.48;2.83;;;;;;;8.97;68.64;98317.97;5114399;28;20038;-68
2023/10/16 13:32:46;;;;;;;7.32;2.78;;;;;;;9.06;68.77;98329.59;5117360;27;20155;-64
2023/10/16 13:35:12;;;;;;;7.15;3.28;;;;;;;9.03;69.04;98333.38;5084013;28;20059;-65
2023/10/16 13:37:42;;;;;;;8.65;3.17;;;;;;;8.85;69.13;98305.81;5115274;27;20035;-64
2023/10/16 13:40:20;;;;;;;8.25;3.22;;;;;;;9.00;69.64;98331.03;5105061;28;20107;-65
2023/10/16 13:42:54;;;;;;;8.00;3.50;;;;;;;8.99;69.21;98339.16;5095179;28;20039;-66
2023/10/16 13:45:21;;;;;;;5.88;3.22;;;;;;;8.89;69.84;98341.88;5115803;28;20023;-65